Αναφορές Αεροδρομίων

 

KSJC - San Jose, California, USA
Distance from station: ΒΑ 14km
Ενημερώθηκε: 26/02/2024 22:53
Συννεφιά
Συννεφιά
 Ανεμος από ΒΔ
Ανεμος: ΒΔ 28 km/h
Θερμοκρασία: 16°C
Σημείο Δρόσου: 11°C
Υγρασία: 72%
Βαρόμετρο: 1016.6 hPa
Clouds: Συννεφιά
Visibility: 16 km
Cloud details: Few Clouds 335 m
Σχεδόν νεφελώδης 914 m
Συννεφιά 1829 m
2024/02/26 20:53 KSJC 262053Z 32015KT 10SM FEW011 BKN030 OVC060 16/11 A3002 RMK AO2 SLP165 T01610111 58006
KNUQ - Moffett Nas/Mtn, California, USA
Distance from station: Β 14km
Ενημερώθηκε: 26/02/2024 22:55
Mist, Συννεφιά
Mist, Συννεφιά
 Ανεμος από ΒΔ
Ανεμος: ΒΔ 13 km/h
Θερμοκρασία: 13°C
Σημείο Δρόσου: 12°C
Υγρασία: 94%
Βαρόμετρο: 1017.3 hPa
Περίληψη: Mist
Clouds: Συννεφιά
Visibility: 10 km
Cloud details: Few Clouds 274 m
Σχεδόν νεφελώδης 640 m
Συννεφιά 823 m
2024/02/26 20:55 KNUQ 262055Z AUTO 32007KT 6SM BR FEW009 BKN021 OVC027 13/12 A3004 RMK AO2
 
KPAO - Palo Alto, California, USA
Distance from station: ΒΒΔ 23km
Ενημερώθηκε: 26/02/2024 22:47
Nearby showers, Συννεφιά
Nearby showers, Συννεφιά
 Ανεμος από ΒΔ
Ανεμος: ΒΔ 15 km/h
Θερμοκρασία: 13°C
Σημείο Δρόσου: 12°C
Υγρασία: 94%
Βαρόμετρο: 1017.3 hPa
Περίληψη: Nearby Showers
Clouds: Συννεφιά
Visibility: 4 km
Cloud details: Few Clouds 152 m
Συννεφιά 183 m
2024/02/26 20:47 KPAO 262047Z 31008KT 2 1/2SM VCSH FEW005 OVC006 13/12 A3004
KRHV - San Jose/Reid, California, USA
Distance from station: ΑΒΑ 19km
Ενημερώθηκε: 26/02/2024 22:47
Σχεδόν νεφελώδης
Σχεδόν νεφελώδης
 Ανεμος από ΒΔ
Ανεμος: ΒΔ 20 km/h
Θερμοκρασία: 17°C
Σημείο Δρόσου: 10°C
Υγρασία: 64%
Βαρόμετρο: 1016.6 hPa
Clouds: Σχεδόν νεφελώδης
Visibility: 16 km
Cloud details: Μερικώς νεφελώδης 1524 m
Σχεδόν νεφελώδης 1981 m
2024/02/26 20:47 KRHV 262047Z 31011KT 10SM SCT050 BKN065 17/10 A3002
 
KOAK - Oakland, California, USA
Distance from station: ΒΒΔ 50km
Ενημερώθηκε: 26/02/2024 22:53
Σχεδόν νεφελώδης
Σχεδόν νεφελώδης
 Ανεμος από Δ
Ανεμος: Δ 11 km/h
Θερμοκρασία: 16°C
Σημείο Δρόσου: 12°C
Υγρασία: 77%
Βαρόμετρο: 1016.9 hPa
Clouds: Σχεδόν νεφελώδης
Visibility: 16 km
Cloud details: Few Clouds 610 m
Σχεδόν νεφελώδης 914 m
Σχεδόν νεφελώδης 3048 m
2024/02/26 20:53 KOAK 262053Z 28006KT 10SM FEW020 BKN030 BKN100 16/12 A3003 RMK AO2 SLP167 T01560117 58008
KSQL - San Carlos Airpo, California, USA
Distance from station: ΒΔ 34km
Ενημερώθηκε: 26/02/2024 22:47
Σχεδόν νεφελώδης
Σχεδόν νεφελώδης
 Ανεμος από Δ
Ανεμος: Δ 6 km/h
Θερμοκρασία: 13°C
Σημείο Δρόσου: 13°C
Υγρασία: 100%
Βαρόμετρο: 1017.3 hPa
Clouds: Σχεδόν νεφελώδης
Visibility: 5 km
Cloud details: Μερικώς νεφελώδης 396 m
Μερικώς νεφελώδης 853 m
Σχεδόν νεφελώδης 1311 m
2024/02/26 20:47 KSQL 262047Z 26003KT 3SM SCT013 SCT028 BKN043 13/13 A3004 -RA
 
KSFO - San Francisco, California, USA
Distance from station: ΒΔ 49km
Ενημερώθηκε: 26/02/2024 22:56
Σχεδόν νεφελώδης
Σχεδόν νεφελώδης
 Ανεμος από ΔΒΔ
Ανεμος: ΔΒΔ 19 km/h
Θερμοκρασία: 16°C
Σημείο Δρόσου: 11°C
Υγρασία: 72%
Βαρόμετρο: 1016.9 hPa
Clouds: Σχεδόν νεφελώδης
Visibility: 13 km
Cloud details: Μερικώς νεφελώδης 1128 m
Σχεδόν νεφελώδης 2896 m
Σχεδόν νεφελώδης 3353 m
2024/02/26 20:56 KSFO 262056Z 29010KT 8SM SCT037 BKN095 BKN110 16/11 A3003 RMK AO2 RAE24 SLP167 P0001 60001 T01560111 58006 $
KE16 - San Martin, California, USA
Distance from station: ΑΝΑ 43km
Ενημερώθηκε: 26/02/2024 22:55
Αίθριος
Αίθριος
 Ανεμος από calm
Ανεμος: Απνοια
Θερμοκρασία: 16°C
Σημείο Δρόσου: 9°C
Υγρασία: 63%
Βαρόμετρο: 1016.6 hPa
Clouds: Αίθριος
Visibility: 16 km
2024/02/26 20:55 KE16 262055Z AUTO 00000KT 10SM CLR 16/09 A3002 RMK AO2 PWINO PNO
 
KWVI - Watsonville, California, USA
Distance from station: ΝΝΑ 44km
Ενημερώθηκε: 25/02/2024 21:53
NOT Current
Αίθριος
Αίθριος
 Ανεμος από ΔΝΔ
Ανεμος: ΔΝΔ 13 km/h
Βαρόμετρο: 1018.6 hPa
Clouds: Αίθριος
Visibility: 16 km
2024/02/25 19:53 KWVI 251953Z AUTO 24007KT 10SM CLR A3008 RMK AO2 SLPNO $
KHAF - Half Moon Bay, California, USA
Distance from station: ΔΒΔ 50km
Ενημερώθηκε: 26/02/2024 22:55
Ασθενής βροχή, Mist, Few clouds
Ασθενής βροχή, Mist, Few clouds
 Ανεμος από ΒΒΔ
Ανεμος: ΒΒΔ 11 km/h
Θερμοκρασία: 13°C
Σημείο Δρόσου: 13°C
Υγρασία: 100%
Βαρόμετρο: 1017.3 hPa
Περίληψη: Ασθενής βροχή, Mist
Clouds: Few Clouds
Visibility: 3 km
Cloud details: Few Clouds 1036 m
Few Clouds 1341 m
2024/02/26 20:55 KHAF 262055Z AUTO 34006KT 2SM -RA BR FEW034 FEW044 13/13 A3004 RMK AO2 P0006
 
KHWD - Hayward, California, USA
Distance from station: Β 44km
Ενημερώθηκε: 26/02/2024 22:54
Ασθενής βροχή, Σχεδόν νεφελώδης
Ασθενής βροχή, Σχεδόν νεφελώδης
 Ανεμος από ΔΝΔ
Ανεμος: ΔΝΔ 13 km/h
Θερμοκρασία: 16°C
Σημείο Δρόσου: 12°C
Υγρασία: 77%
Βαρόμετρο: 1016.6 hPa
Περίληψη: Ασθενής βροχή
Clouds: Σχεδόν νεφελώδης
Visibility: 16 km
Cloud details: Few Clouds 610 m
Σχεδόν νεφελώδης 1524 m
Σχεδόν νεφελώδης 1981 m
2024/02/26 20:54 KHWD 262054Z 25007KT 10SM -RA FEW020 BKN050 BKN065 16/12 A3002 RMK AO2 RAE08B35 SLP176 P0000 60000 T01560117 58006
KLVK - Livermore, California, USA
Distance from station: ΒΒΑ 51km
Ενημερώθηκε: 26/02/2024 22:53
Ασθενής βροχή, Συννεφιά
Ασθενής βροχή, Συννεφιά
 Ανεμος από Δ
Ανεμος: Δ 11 km/h
Θερμοκρασία: 14°C
Σημείο Δρόσου: 11°C
Υγρασία: 82%
Βαρόμετρο: 1016.6 hPa
Περίληψη: Ασθενής βροχή
Clouds: Συννεφιά
Visibility: 13 km
Cloud details: Few Clouds 1676 m
Μερικώς νεφελώδης 2134 m
Συννεφιά 2743 m
2024/02/26 20:53 KLVK 262053Z 28006KT 8SM -RA FEW055 SCT070 OVC090 14/11 A3002 RMK AO2 RAE22B39 SLP162 P0002 60002 T01390111 58005